»·PEaware :: UAE457 KSFO-KPDX

UAE457 :: KSFO-KPDX

FLIGHT INFORMATION

Flight Status: Arrived
Operator:
Emirates
More flights by this operator :: More flights under this callsign
Pilot: Alan S. (10569)
Aircraft: Unknown
(B77F)
More flights by this aircraft type
Origin: KSFO San Francisco Intl
United States
Destination: KPDX Portland Intl
United States
More flights between these airports :: More routes between these airports
Route: +CIITY3 GRTFL MACHU TMBRS2
File this flight plan on PilotEdge
Remarks: twitch.tv / aerosimgaming
Altitude:
(Current/Filed)
34,000ft
Speed:
(Current/Filed)
480kts
Departed: 07-Jan-17 07:13 PM
Arrived: 07-Jan-17 09:02 PM
Distance/Time
Traveled:
478nm/1:49
Distance/Time
To Go:
Arrived

Flight Plot

Page will automatically refresh every two minutes.


Map Options




Map Legend


Flown Route
Filed Route
Departure Airport
Arrival Airport
Navaid (VOR, NDB)
Fix

Horizontal Profiles

Position Reports

Time Latitude Longitude Heading Altitude Ground
Speed
07-Jan-17 18:36 37.636138 -122.387687 60 29ft 0kts
07-Jan-17 18:37 37.636138 -122.387687 60 29ft 0kts
07-Jan-17 18:38 37.636138 -122.387687 60 29ft 0kts
07-Jan-17 18:39 37.636138 -122.387687 60 29ft 0kts
07-Jan-17 18:40 37.636138 -122.387687 60 29ft 0kts
07-Jan-17 18:41 37.636138 -122.387687 60 29ft 0kts
07-Jan-17 18:42 37.636138 -122.387687 60 29ft 0kts
07-Jan-17 18:43 37.636138 -122.387687 60 29ft 0kts
07-Jan-17 18:44 37.636138 -122.387687 60 29ft 0kts
07-Jan-17 18:45 37.636138 -122.387687 60 29ft 0kts
07-Jan-17 18:46 37.636138 -122.387687 60 29ft 0kts
07-Jan-17 18:47 37.636138 -122.387687 60 29ft 0kts
07-Jan-17 18:48 37.636138 -122.387687 60 29ft 0kts
07-Jan-17 18:49 37.636138 -122.387687 60 29ft 0kts
07-Jan-17 18:50 37.636138 -122.387687 60 29ft 0kts
07-Jan-17 18:51 37.636138 -122.387687 60 29ft 0kts
07-Jan-17 18:52 37.636138 -122.387687 60 29ft 0kts
07-Jan-17 18:53 37.636138 -122.387687 60 29ft 0kts
07-Jan-17 18:54 37.636138 -122.387687 60 29ft 0kts
07-Jan-17 18:55 37.636138 -122.387687 60 29ft 0kts
07-Jan-17 18:56 37.636138 -122.387687 60 29ft 0kts
07-Jan-17 18:57 37.635904 -122.388086 70 29ft 2kts
07-Jan-17 18:58 37.635907 -122.388472 113 29ft 0kts
07-Jan-17 18:59 37.635524 -122.388118 161 29ft 0kts
07-Jan-17 19:00 37.635524 -122.388118 161 29ft 0kts
07-Jan-17 19:01 37.635524 -122.388118 161 29ft 0kts
07-Jan-17 19:02 37.635524 -122.388118 161 29ft 0kts
07-Jan-17 19:03 37.635524 -122.388118 161 29ft 0kts
07-Jan-17 19:04 37.635524 -122.388118 161 29ft 0kts
07-Jan-17 19:05 37.634852 -122.388352 219 29ft 10kts
07-Jan-17 19:06 37.633534 -122.391530 220 29ft 10kts
07-Jan-17 19:07 37.631375 -122.392675 245 29ft 9kts
07-Jan-17 19:08 37.630364 -122.396029 241 29ft 10kts
07-Jan-17 19:09 37.627775 -122.396571 168 29ft 10kts
07-Jan-17 19:10 37.625672 -122.394255 118 29ft 9kts
07-Jan-17 19:11 37.625546 -122.393884 100 29ft 0kts
07-Jan-17 19:12 37.625666 -122.393394 47 29ft 7kts
07-Jan-17 19:13 37.621289 -122.381298 120 44ft 151kts
07-Jan-17 19:14 37.597847 -122.322223 120 3286ft 218kts
07-Jan-17 19:15 37.567835 -122.242858 122 7043ft 273kts
07-Jan-17 19:16 37.544451 -122.150201 88 10588ft 331kts
07-Jan-17 19:17 37.600384 -122.053382 27 12493ft 399kts
07-Jan-17 19:18 37.688108 -121.970206 38 15044ft 436kts
07-Jan-17 19:19 37.792710 -121.930215 341 17925ft 415kts
07-Jan-17 19:20 37.896525 -121.979993 327 19078ft 407kts
07-Jan-17 19:21 37.999304 -122.036322 327 20536ft 418kts
07-Jan-17 19:22 38.103761 -122.093957 327 23073ft 435kts
07-Jan-17 19:23 38.197728 -122.145904 327 25104ft 450kts
07-Jan-17 19:24 38.311120 -122.208811 326 27606ft 465kts
07-Jan-17 19:25 38.441337 -122.240936 346 29776ft 506kts
07-Jan-17 19:26 38.582074 -122.255534 346 31966ft 524kts
07-Jan-17 19:27 38.722973 -122.270191 345 33972ft 518kts
07-Jan-17 19:28 38.861006 -122.284715 345 34029ft 516kts
07-Jan-17 19:29 38.999366 -122.299283 345 34075ft 516kts
07-Jan-17 19:30 39.136177 -122.313742 345 34065ft 516kts
07-Jan-17 19:31 39.269806 -122.327917 345 34090ft 514kts
07-Jan-17 19:32 39.408771 -122.342718 345 34095ft 514kts
07-Jan-17 19:33 39.547056 -122.357505 345 34097ft 514kts
07-Jan-17 19:34 39.686390 -122.372462 345 34098ft 512kts
07-Jan-17 19:35 39.826999 -122.387622 345 34099ft 512kts
07-Jan-17 19:36 39.967778 -122.402861 345 34100ft 512kts
07-Jan-17 19:37 40.101960 -122.417438 345 34101ft 510kts
07-Jan-17 19:38 40.223801 -122.430738 345 34088ft 511kts
07-Jan-17 19:39 40.361882 -122.445859 345 34067ft 511kts
07-Jan-17 19:40 40.502232 -122.461277 345 34066ft 509kts
07-Jan-17 19:41 40.642240 -122.476759 345 34045ft 510kts
07-Jan-17 19:42 40.782760 -122.492339 345 33963ft 509kts
07-Jan-17 19:43 40.922410 -122.507880 345 33963ft 508kts
07-Jan-17 19:44 41.060996 -122.523392 345 34005ft 508kts
07-Jan-17 19:45 41.189959 -122.537875 345 34009ft 508kts
07-Jan-17 19:46 41.328960 -122.553546 345 34011ft 507kts
07-Jan-17 19:47 41.468055 -122.569303 345 33987ft 506kts
07-Jan-17 19:48 41.608552 -122.581223 347 33985ft 510kts
07-Jan-17 19:49 41.747716 -122.590267 347 33987ft 510kts
07-Jan-17 19:50 41.887268 -122.599401 347 33988ft 508kts
07-Jan-17 19:51 42.025331 -122.608480 347 33984ft 508kts
07-Jan-17 19:52 42.155989 -122.617108 347 33954ft 508kts
07-Jan-17 19:53 42.268266 -122.624572 347 33954ft 506kts
07-Jan-17 19:54 42.431927 -122.635532 347 33956ft 507kts
07-Jan-17 19:55 42.570460 -122.644845 347 33957ft 507kts
07-Jan-17 19:56 42.700338 -122.653187 347 33974ft 505kts
07-Jan-17 19:57 42.814079 -122.660639 346 33974ft 504kts
07-Jan-17 19:58 42.973289 -122.671460 346 33949ft 504kts
07-Jan-17 19:59 43.106495 -122.680571 346 33948ft 504kts
07-Jan-17 20:00 43.215415 -122.688044 346 33942ft 502kts
07-Jan-17 20:01 43.375472 -122.699091 346 33944ft 502kts
07-Jan-17 20:02 43.489961 -122.706990 346 33944ft 502kts
07-Jan-17 20:03 43.628200 -122.716541 346 33956ft 501kts
07-Jan-17 20:04 43.788490 -122.727590 346 33512ft 483kts
07-Jan-17 20:05 43.915000 -122.736639 346 31172ft 469kts
07-Jan-17 20:06 44.023769 -122.744240 347 28478ft 476kts
07-Jan-17 20:07 44.144066 -122.752270 350 25896ft 469kts
07-Jan-17 20:08 44.269057 -122.741178 355 23965ft 444kts
07-Jan-17 20:09 44.386275 -122.729722 354 23401ft 423kts
07-Jan-17 20:10 44.499380 -122.718495 354 21808ft 399kts
07-Jan-17 20:11 44.605746 -122.707948 354 19955ft 382kts
07-Jan-17 20:12 44.707391 -122.697734 355 18051ft 368kts
07-Jan-17 20:13 44.804533 -122.687852 355 16107ft 332kts
07-Jan-17 20:14 44.893891 -122.678984 356 14445ft 322kts
07-Jan-17 20:15 44.979820 -122.670317 357 12993ft 312kts
07-Jan-17 20:16 45.064487 -122.661728 357 11535ft 305kts
07-Jan-17 20:17 45.139322 -122.654104 358 10204ft 298kts
07-Jan-17 20:18 45.219067 -122.645900 359 8737ft 290kts
07-Jan-17 20:19 45.297194 -122.637833 359 7269ft 282kts
07-Jan-17 20:20 45.356328 -122.676053 311 5836ft 244kts
07-Jan-17 20:21 45.409721 -122.728039 321 4968ft 225kts
07-Jan-17 20:22 45.467571 -122.762422 333 4994ft 230kts
07-Jan-17 20:23 45.526775 -122.795190 333 4994ft 230kts
07-Jan-17 20:24 45.581474 -122.835798 299 4980ft 220kts
07-Jan-17 20:25 45.614487 -122.908048 299 4567ft 219kts
07-Jan-17 20:26 45.656107 -122.967087 314 3494ft 206kts
07-Jan-17 20:27 45.698519 -123.021637 315 3494ft 216kts
07-Jan-17 20:28 45.740464 -123.011601 89 3523ft 205kts
07-Jan-17 20:29 45.719439 -122.944017 121 3489ft 177kts
07-Jan-17 20:30 45.695930 -122.882647 120 3367ft 179kts
07-Jan-17 20:31 45.671663 -122.819300 123 3094ft 196kts
07-Jan-17 20:32 45.646427 -122.753867 121 2126ft 164kts
07-Jan-17 20:33 45.625145 -122.698912 119 1276ft 160kts
07-Jan-17 20:34 45.604974 -122.646467 120 463ft 147kts
07-Jan-17 20:35 45.586520 -122.599161 119 34ft 117kts
07-Jan-17 20:36 45.567370 -122.554148 115 1674ft 171kts
07-Jan-17 20:37 45.542712 -122.476968 115 3495ft 252kts
07-Jan-17 20:38 45.517140 -122.382500 103 4746ft 276kts
07-Jan-17 20:39 45.557423 -122.317286 14 5003ft 270kts
07-Jan-17 20:40 45.599836 -122.296361 15 4992ft 269kts
07-Jan-17 20:41 45.663748 -122.300825 292 5017ft 243kts
07-Jan-17 20:42 45.683116 -122.391621 285 4994ft 248kts
07-Jan-17 20:43 45.702763 -122.485164 285 4990ft 250kts
07-Jan-17 20:44 45.722050 -122.576874 285 4333ft 233kts
07-Jan-17 20:45 45.738831 -122.656582 284 3523ft 207kts
07-Jan-17 20:46 45.753704 -122.726742 284 3465ft 172kts
07-Jan-17 20:47 45.767056 -122.788721 284 3474ft 164kts
07-Jan-17 20:48 45.780671 -122.851993 284 3497ft 171kts
07-Jan-17 20:49 45.768350 -122.906332 214 3510ft 175kts
07-Jan-17 20:50 45.726300 -122.941670 214 3494ft 180kts
07-Jan-17 20:51 45.684179 -122.976893 184 3475ft 178kts
07-Jan-17 20:52 45.681072 -122.930275 32 3519ft 184kts
07-Jan-17 20:53 45.724275 -122.888470 34 3494ft 201kts
07-Jan-17 20:54 45.772281 -122.852629 332 3484ft 190kts
07-Jan-17 20:55 45.760953 -122.899734 215 3496ft 170kts
07-Jan-17 20:56 45.719093 -122.901282 143 3412ft 188kts
07-Jan-17 20:57 45.682853 -122.847423 120 3077ft 203kts
07-Jan-17 20:58 45.655784 -122.778008 121 2519ft 199kts
07-Jan-17 20:59 45.631937 -122.716418 120 1574ft 160kts
07-Jan-17 21:00 45.611818 -122.664680 119 738ft 141kts
07-Jan-17 21:01 45.593267 -122.616820 117 46ft 138kts
07-Jan-17 21:02 45.586603 -122.597337 33 33ft 8kts
07-Jan-17 21:03 45.587062 -122.597002 27 33ft 0kts
07-Jan-17 21:04 45.587100 -122.596975 28 33ft 0kts

Navigation Log

Ident Type
Flight plan parsing failed, navigation log unavailable